Logo
Print
TAF RPLL

092300Z 1000/1106 26006KT 9999 FEW023 SCT100 TX34/1006Z TN27/1022Z TEMPO 1000/1006 28012KT FEW022CB BKN100 TEMPO 1006/1012 23008KT 9000 -SHRA FEW022CB BKN090=

TAF RPVM

092300Z 1000/1106 24006KT 9999 FEW020 BKN300 TEMPO 1000/1006 23010KT FEW020 BKN090 TEMPO 1006/1012 25012KT 9000 -SHRA FEW018CB OVC090=

TAF RPLC

092300Z 1000/1106 24006KT 9999 SCT020 BKN300 TX34/1006Z TN25/1022Z TEMPO 1000/1006 17010KT 8000 -TSRA FEW015CB SCT018 OVC100=

TAF RPLB

092300Z 1000/1024 22008KT 9999 FEW018 BKN100 TX32/1006Z TN24/1022Z TEMPO 1000/1006 VRB03KT 9000 -TSRA FEW016CB SCT018 OVC080=

TAF RPLI

092300Z 1000/1024 25006KT 9999 FEW018 BKN100 TEMPO 1000/1006 12008KT 8000 -TSRA FEW017CB SCT018 BKN090=

TAF RPVP

092300Z 1000/1024 23005KT 9999 FEW019 SCT250 TEMPO 1000/1006 00000KT FEW017CB SCT019 OVC080=

TAF RPVD

092300Z 1000/1024 27006KT 9999 FEW015 SCT070 BKN220 TEMPO 1000/1006 09010KT -TSRA FEW014CB BKN070=

TAF RPMR

092300Z 1000/1024 16006KT 9999 FEW020 SCT250 TEMPO 1006/1012 09010KT -TSRA FEW018CB BKN080=

TAF RPMD

092300Z 1000/1024 01006KT 9999 FEW016 SCT290 TEMPO 1006/1012 20009KT 8000 -TSRA FEW015CB SCT016 BKN090=

TAF RPMZ

092300Z 1000/1024 27006KT 9999 FEW017 SCT300 TEMPO 1000/1006 28012KT -TSRA FEW016CB BKN090=


RPLL FORECAST TAKE-OFF CONDITION
TIME

(UTC)

WIND

(dddffKT)

TEMP

(°C)

QNH

(hPa)

TIME

(UTC)

WIND

(dddffKT)

TEMP

(°C)

QNH

(hPa)

0000

     22004KT

28.0

1008.0

0400

26009KT

33.0

1009.0

0100

26004KT

30.0

1009.0

0500

26010KT

34.0

1008.0

0200

24006KT

31.0

1009.0

0600

28012KT

34.0

1007.0

0300

23008KT

33.0

1009.0

0700

25013KT

33.0

1006.0


ISSUED AT NAIA AMSS-WD/PAGASA-DOST FOR 2300UTC 09 MAY 2019

PREPARED BY:                        CRSED
CHECKED BY:                          GSS